Terminal Aerodrome Forecast
Issued by NWS

Home | Current Version | Previous Version | Text Only | Print | Product List | Glossary On
Versions: 1 2 3 4 5 6 7 8 9 10 11 12 13 14 15
000
FTUS44 KCRP 152300
TAFALI
TAF
KALI 152327Z 1600/1624 02008KT P6SM SKC
     FM160300 11004KT P6SM SKC
     FM161500 14012KT P6SM SCT035
     FM161800 13015G20KT P6SM BKN040 OVC250=

USA.gov is the U.S. government's official web portal to all federal, state and local government web resources and services.